Time;durP1;ratioP1;P1;durP2;ratioP2;P2;SDS_P1;SDS_P2;PMS_P1;PMS_P2;Temp;Humidity;BMP_temperature;BMP_pressure;BME280_temperature;BME280_humidity;BME280_pressure;Samples;Min_cycle;Max_cycle;Signal;HPM_P1;HPM_P2
2023/03/09 00:00:59;;;;;;;18.25;7.47;;;3.70;99.90;;;;;;5053281;28;20045;-85
2023/03/09 00:03:25;;;;;;;17.25;7.25;;;3.70;99.90;;;;;;5055642;28;20049;-84
2023/03/09 00:05:52;;;;;;;23.13;8.18;;;3.70;99.90;;;;;;5037971;28;20469;-84
2023/03/09 00:11:05;;;;;;;19.35;7.55;;;3.70;99.90;;;;;;5053846;28;20059;-84
2023/03/09 00:13:31;;;;;;;18.60;7.70;;;3.70;99.90;;;;;;5037431;28;20041;-83
2023/03/09 00:15:58;;;;;;;20.38;8.20;;;3.70;99.90;;;;;;5036630;28;20052;-85
2023/03/09 00:18:25;;;;;;;20.88;8.55;;;3.70;99.90;;;;;;5048395;28;20109;-84
2023/03/09 00:20:52;;;;;;;24.25;8.25;;;3.70;99.90;;;;;;5033037;28;20049;-84
2023/03/09 00:23:19;;;;;;;21.58;7.80;;;3.70;99.90;;;;;;5034215;28;20381;-84
2023/03/09 00:25:45;;;;;;;22.38;8.43;;;3.70;99.90;;;;;;5017619;28;20383;-85
2023/03/09 00:28:13;;;;;;;23.90;8.60;;;3.70;99.90;;;;;;5033143;28;20041;-83
2023/03/09 00:30:40;;;;;;;16.90;8.05;;;3.70;99.90;;;;;;5017415;28;20464;-85
2023/03/09 00:33:06;;;;;;;22.00;7.90;;;3.70;99.90;;;;;;5018284;28;20045;-84
2023/03/09 00:35:33;;;;;;;22.75;8.50;;;3.70;99.90;;;;;;5033230;28;20464;-84
2023/03/09 00:38:00;;;;;;;21.02;8.10;;;3.70;99.90;;;;;;5034089;28;20112;-83
2023/03/09 00:40:26;;;;;;;19.05;8.27;;;3.80;99.90;;;;;;5035420;28;20049;-84
2023/03/09 00:42:53;;;;;;;22.50;8.50;;;3.80;99.90;;;;;;5053089;28;20115;-85
2023/03/09 00:45:22;;;;;;;22.40;8.63;;;3.70;99.90;;;;;;5037164;28;20463;-85
2023/03/09 00:47:49;;;;;;;26.48;8.57;;;3.70;99.90;;;;;;5036219;28;20368;-84
2023/03/09 00:53:03;;;;;;;19.83;7.80;;;3.70;99.90;;;;;;5053760;28;20087;-85
2023/03/09 00:55:29;;;;;;;25.05;8.75;;;3.60;99.90;;;;;;5018181;28;20060;-84
2023/03/09 00:57:56;;;;;;;21.15;8.60;;;3.70;99.90;;;;;;5017458;28;20482;-84
2023/03/09 01:00:23;;;;;;;24.40;9.38;;;3.60;99.90;;;;;;5017009;28;20092;-83
2023/03/09 01:02:50;;;;;;;20.30;8.43;;;3.60;99.90;;;;;;5032682;28;20452;-85
2023/03/09 01:05:17;;;;;;;21.30;8.77;;;3.60;99.90;;;;;;5017187;28;20427;-84
2023/03/09 01:07:44;;;;;;;18.38;8.30;;;3.70;99.90;;;;;;5032798;28;20468;-85
2023/03/09 01:12:56;;;;;;;25.92;10.43;;;3.60;99.90;;;;;;5034039;28;20085;-83
2023/03/09 01:15:23;;;;;;;28.13;9.55;;;3.60;99.90;;;;;;5016283;28;20033;-84
2023/03/09 01:17:49;;;;;;;27.08;10.18;;;3.60;99.90;;;;;;5017186;28;20041;-84
2023/03/09 01:20:18;;;;;;;30.40;9.52;;;3.60;99.90;;;;;;5033233;28;20049;-84
2023/03/09 01:22:45;;;;;;;24.35;8.82;;;3.70;99.90;;;;;;5032555;28;20053;-83
2023/03/09 01:25:12;;;;;;;25.75;9.45;;;3.70;99.90;;;;;;5033346;28;20135;-83
2023/03/09 01:27:38;;;;;;;22.30;9.30;;;3.60;99.90;;;;;;5016258;28;20042;-84
2023/03/09 01:32:53;;;;;;;24.83;9.57;;;3.60;99.90;;;;;;5034598;28;20077;-84
2023/03/09 01:35:20;;;;;;;23.88;10.13;;;3.70;99.90;;;;;;5032230;28;20378;-83
2023/03/09 01:37:47;;;;;;;31.50;10.55;;;3.70;99.90;;;;;;5033300;28;20460;-83
2023/03/09 01:40:14;;;;;;;28.17;10.43;;;3.70;99.90;;;;;;5033939;28;20125;-83
2023/03/09 01:42:40;;;;;;;28.88;10.20;;;3.60;99.90;;;;;;5049043;28;20472;-83
2023/03/09 01:45:07;;;;;;;27.67;9.73;;;3.70;99.90;;;;;;5033136;28;20049;-84
2023/03/09 01:47:33;;;;;;;22.92;9.70;;;3.70;99.90;;;;;;5032535;28;20037;-84
2023/03/09 01:52:32;;;;;;;24.50;9.75;;;3.70;99.90;;;;;;5034291;28;20105;-84
2023/03/09 01:54:59;;;;;;;29.10;10.65;;;3.70;99.90;;;;;;5032343;28;20052;-83
2023/03/09 01:57:25;;;;;;;27.20;9.98;;;3.70;99.90;;;;;;5016655;28;20050;-83
2023/03/09 01:59:53;;;;;;;25.13;9.00;;;3.70;99.90;;;;;;5016890;28;20058;-84
2023/03/09 02:02:20;;;;;;;27.70;10.50;;;3.70;99.90;;;;;;5019323;28;20041;-84
2023/03/09 02:04:47;;;;;;;23.20;9.95;;;3.70;99.90;;;;;;5020008;28;20375;-84
2023/03/09 02:07:15;;;;;;;26.63;10.15;;;3.70;99.90;;;;;;5036531;28;20045;-83
2023/03/09 02:12:47;;;;;;;31.05;10.65;;;3.70;99.90;;;;;;5036373;28;20471;-83
2023/03/09 02:15:13;;;;;;;28.23;9.68;;;3.70;99.90;;;;;;5035434;28;20048;-84
2023/03/09 02:17:40;;;;;;;23.98;9.55;;;3.70;99.90;;;;;;5052687;28;20472;-84
2023/03/09 02:20:07;;;;;;;26.85;10.60;;;3.70;99.90;;;;;;5036114;28;20042;-83
2023/03/09 02:22:33;;;;;;;25.08;9.35;;;3.70;99.90;;;;;;5035582;28;20065;-83
2023/03/09 02:25:00;;;;;;;27.50;10.90;;;3.70;99.90;;;;;;5035933;28;20033;-84
2023/03/09 02:27:27;;;;;;;31.85;10.48;;;3.70;99.90;;;;;;5037062;28;20132;-82
2023/03/09 02:29:54;;;;;;;31.45;9.55;;;3.70;99.90;;;;;;5019830;28;20042;-83
2023/03/09 02:32:23;;;;;;;50.40;10.65;;;3.70;99.90;;;;;;5020296;28;20049;-83
2023/03/09 02:34:50;;;;;;;25.75;9.25;;;3.70;99.90;;;;;;5018924;28;20470;-84
2023/03/09 02:37:17;;;;;;;26.30;9.82;;;3.70;99.90;;;;;;5019580;28;20057;-83
2023/03/09 02:42:16;;;;;;;25.02;9.93;;;3.80;99.90;;;;;;5035946;28;20045;-84
2023/03/09 02:44:44;;;;;;;26.88;9.98;;;3.80;99.90;;;;;;5019420;28;20037;-82
2023/03/09 02:47:12;;;;;;;24.48;10.10;;;3.80;99.90;;;;;;5036013;28;20471;-83
2023/03/09 02:49:41;;;;;;;32.30;11.07;;;3.80;99.90;;;;;;5018205;28;20057;-83
2023/03/09 02:52:08;;;;;;;25.67;9.98;;;3.80;99.90;;;;;;5019301;28;20045;-83
2023/03/09 02:54:34;;;;;;;31.13;10.90;;;3.80;99.90;;;;;;5018325;28;20461;-83
2023/03/09 02:57:02;;;;;;;40.80;10.50;;;3.80;99.90;;;;;;5019119;28;20103;-83
2023/03/09 03:02:14;;;;;;;31.85;10.02;;;3.80;99.90;;;;;;5035783;28;20460;-83
2023/03/09 03:04:41;;;;;;;29.85;10.38;;;3.80;99.90;;;;;;5018820;28;20384;-83
2023/03/09 03:07:08;;;;;;;31.75;11.35;;;3.80;99.90;;;;;;5018889;28;20041;-83
2023/03/09 03:09:36;;;;;;;26.45;9.70;;;3.80;99.90;;;;;;5034167;28;20041;-84
2023/03/09 03:12:03;;;;;;;27.05;10.57;;;3.80;99.90;;;;;;5035200;28;20531;-83
2023/03/09 03:14:31;;;;;;;30.10;10.95;;;3.90;99.90;;;;;;5034323;28;20211;-83
2023/03/09 03:16:57;;;;;;;26.38;10.88;;;3.90;99.90;;;;;;5035152;28;20103;-83
2023/03/09 03:19:26;;;;;;;32.10;11.20;;;3.80;99.90;;;;;;5018401;28;20121;-84
2023/03/09 03:21:54;;;;;;;27.13;10.10;;;3.90;99.90;;;;;;5018047;28;20045;-83
2023/03/09 03:24:21;;;;;;;29.70;11.15;;;3.80;99.90;;;;;;5034958;28;20099;-83
2023/03/09 03:26:48;;;;;;;27.35;11.25;;;3.80;99.90;;;;;;5018576;28;20425;-84
2023/03/09 03:29:20;;;;;;;30.95;11.35;;;3.80;99.90;;;;;;5033887;28;20045;-84
2023/03/09 03:31:48;;;;;;;31.42;11.80;;;3.80;99.90;;;;;;5034872;28;20163;-84
2023/03/09 03:34:14;;;;;;;34.17;11.80;;;3.80;99.90;;;;;;5017666;28;20045;-83
2023/03/09 03:36:45;;;;;;;31.20;11.02;;;3.90;99.90;;;;;;5018737;28;20072;-83
2023/03/09 03:39:15;;;;;;;32.35;11.63;;;3.90;99.90;;;;;;5018177;28;20107;-83
2023/03/09 03:41:42;;;;;;;30.85;11.60;;;3.90;99.90;;;;;;5017613;28;20045;-82
2023/03/09 03:44:12;;;;;;;82.95;12.82;;;3.90;99.90;;;;;;5018517;28;20095;-83
2023/03/09 03:46:41;;;;;;;30.02;11.40;;;4.00;99.90;;;;;;5018549;28;20072;-83
2023/03/09 03:49:09;;;;;;;30.65;10.63;;;4.00;99.90;;;;;;5017328;28;20133;-83
2023/03/09 03:51:38;;;;;;;31.85;11.00;;;4.00;99.90;;;;;;5034533;28;20045;-83
2023/03/09 03:54:04;;;;;;;28.92;11.02;;;4.00;99.90;;;;;;5018117;28;20140;-83
2023/03/09 03:56:32;;;;;;;33.40;12.20;;;4.00;99.90;;;;;;5017167;28;20365;-83
2023/03/09 03:59:02;;;;;;;31.88;11.38;;;4.00;99.90;;;;;;5034212;28;20054;-83
2023/03/09 04:01:28;;;;;;;29.52;11.27;;;4.00;99.90;;;;;;5033746;28;20057;-84
2023/03/09 04:04:01;;;;;;;32.20;11.77;;;4.10;99.90;;;;;;5019086;28;20379;-83
2023/03/09 04:06:31;;;;;;;30.70;11.65;;;4.10;99.90;;;;;;5018864;28;20491;-84
2023/03/09 04:11:46;;;;;;;46.13;12.98;;;4.00;99.90;;;;;;5050724;28;20049;-83
2023/03/09 04:14:13;;;;;;;30.75;11.10;;;4.00;99.90;;;;;;5016831;28;20052;-84
2023/03/09 04:16:39;;;;;;;28.08;11.70;;;4.00;99.90;;;;;;5017559;28;20045;-83
2023/03/09 04:19:06;;;;;;;30.05;11.38;;;4.00;99.90;;;;;;5017255;28;20048;-83
2023/03/09 04:21:36;;;;;;;30.33;11.52;;;4.00;99.90;;;;;;5017100;28;20050;-84
2023/03/09 04:24:02;;;;;;;35.88;11.63;;;4.00;99.90;;;;;;5033440;28;20060;-83
2023/03/09 04:26:29;;;;;;;28.95;12.20;;;4.00;99.90;;;;;;5034200;28;20152;-83
2023/03/09 04:29:02;;;;;;;36.47;12.07;;;4.00;99.90;;;;;;5033185;28;20464;-83
2023/03/09 04:31:29;;;;;;;33.97;12.15;;;4.00;99.90;;;;;;5017690;28;20561;-83
2023/03/09 04:33:57;;;;;;;32.45;11.70;;;4.00;99.90;;;;;;5017908;28;20037;-83
2023/03/09 04:36:24;;;;;;;28.45;11.93;;;4.00;99.90;;;;;;5016510;28;20054;-83
2023/03/09 04:38:52;;;;;;;35.15;12.95;;;4.00;99.90;;;;;;5033485;28;20269;-83
2023/03/09 04:41:21;;;;;;;34.55;12.10;;;4.00;99.90;;;;;;5016877;28;20136;-83
2023/03/09 04:43:51;;;;;;;37.20;13.20;;;4.00;99.90;;;;;;5033872;28;20060;-83
2023/03/09 04:46:19;;;;;;;32.88;11.80;;;4.00;99.90;;;;;;5017277;28;20041;-83
2023/03/09 04:51:39;;;;;;;29.35;11.95;;;4.00;99.90;;;;;;5034133;28;20429;-82
2023/03/09 04:54:05;;;;;;;33.50;12.50;;;4.00;99.90;;;;;;5033446;28;20052;-82
2023/03/09 04:56:32;;;;;;;45.75;12.43;;;4.10;99.90;;;;;;5016323;28;20208;-82
2023/03/09 04:59:06;;;;;;;33.75;12.90;;;4.00;99.90;;;;;;5033672;28;20064;-83
2023/03/09 05:01:33;;;;;;;33.38;12.43;;;4.00;99.90;;;;;;5033336;28;20042;-82
2023/03/09 05:04:05;;;;;;;34.25;13.55;;;4.00;99.90;;;;;;5017949;28;20095;-83
2023/03/09 05:06:37;;;;;;;39.65;12.65;;;4.00;99.90;;;;;;5017848;28;20041;-82
2023/03/09 05:09:06;;;;;;;40.03;13.13;;;4.00;99.90;;;;;;5016391;28;20108;-83
2023/03/09 05:11:33;;;;;;;36.38;13.93;;;4.10;99.90;;;;;;5017174;28;20048;-83
2023/03/09 05:14:02;;;;;;;31.88;13.27;;;4.00;99.90;;;;;;5033637;28;20116;-83
2023/03/09 05:16:30;;;;;;;38.35;13.23;;;4.00;99.90;;;;;;5016372;28;20053;-83
2023/03/09 05:18:59;;;;;;;32.05;13.57;;;4.10;99.90;;;;;;5044153;28;20471;-82
2023/03/09 05:21:32;;;;;;;34.17;13.45;;;4.10;99.90;;;;;;5052451;28;20036;-83
2023/03/09 05:24:03;;;;;;;30.77;12.10;;;4.10;99.90;;;;;;5054180;28;20118;-82
2023/03/09 05:26:30;;;;;;;32.35;13.60;;;4.10;99.90;;;;;;5053276;28;20387;-82
2023/03/09 05:28:58;;;;;;;38.80;13.80;;;4.10;99.90;;;;;;5052093;28;20061;-82
2023/03/09 05:31:25;;;;;;;37.22;14.48;;;4.10;99.90;;;;;;5053130;28;20041;-82
2023/03/09 05:33:52;;;;;;;47.42;14.30;;;4.10;99.90;;;;;;5036663;28;20047;-83
2023/03/09 05:36:19;;;;;;;31.92;13.15;;;4.20;99.90;;;;;;5055061;28;20486;-82
2023/03/09 05:41:32;;;;;;;31.92;12.88;;;4.20;99.90;;;;;;5056077;28;20040;-83
2023/03/09 05:44:04;;;;;;;;;;;4.20;99.90;;;;;;5041890;28;20077;-82
2023/03/09 05:46:31;;;;;;;31.05;13.18;;;4.20;99.90;;;;;;5056712;28;19920;-83
2023/03/09 05:51:29;;;;;;;36.40;13.55;;;4.20;99.90;;;;;;5056651;28;20041;-81
2023/03/09 05:53:56;;;;;;;39.83;14.88;;;4.20;99.90;;;;;;5040645;28;20370;-83
2023/03/09 05:56:25;;;;;;;38.28;14.05;;;4.20;99.90;;;;;;5039520;28;20045;-83
2023/03/09 06:01:42;;;;;;;36.88;14.13;;;4.10;99.90;;;;;;5055691;28;20048;-82
2023/03/09 06:04:20;;;;;;;35.53;14.13;;;4.20;99.90;;;;;;5056564;28;20140;-83
2023/03/09 06:06:54;;;;;;;42.55;15.48;;;4.10;99.90;;;;;;5056777;28;20127;-83
2023/03/09 06:09:26;;;;;;;39.13;15.88;;;4.10;99.90;;;;;;5057042;28;20045;-82
2023/03/09 06:11:53;;;;;;;39.33;15.15;;;4.10;99.90;;;;;;5041818;28;20041;-82
2023/03/09 06:14:20;;;;;;;38.92;14.43;;;4.10;99.90;;;;;;5041305;28;20371;-82
2023/03/09 06:16:48;;;;;;;36.35;14.52;;;4.20;99.90;;;;;;5041977;28;20059;-82
2023/03/09 06:19:18;;;;;;;33.83;12.77;;;4.20;99.90;;;;;;5027056;28;20056;-82
2023/03/09 06:21:46;;;;;;;40.33;15.43;;;4.20;99.90;;;;;;5019324;28;20598;-82
2023/03/09 06:24:13;;;;;;;39.78;14.70;;;4.20;99.90;;;;;;5036155;28;20185;-82
2023/03/09 06:26:40;;;;;;;38.33;15.75;;;4.20;99.90;;;;;;5020527;28;20137;-82
2023/03/09 06:29:12;;;;;;;40.47;16.58;;;4.20;99.90;;;;;;5035242;28;20033;-82
2023/03/09 06:31:42;;;;;;;38.15;14.68;;;4.20;99.90;;;;;;5020985;28;20049;-83
2023/03/09 06:34:09;;;;;;;42.22;16.60;;;4.10;99.90;;;;;;5019541;28;20168;-82
2023/03/09 06:36:36;;;;;;;41.28;15.57;;;4.10;99.90;;;;;;5019462;28;20407;-82
2023/03/09 06:39:04;;;;;;;41.30;15.85;;;4.20;99.90;;;;;;5035419;28;20119;-82
2023/03/09 06:41:35;;;;;;;35.05;14.68;;;4.20;99.90;;;;;;5019217;28;20049;-83
2023/03/09 06:44:15;;;;;;;38.60;14.75;;;4.20;99.90;;;;;;5035847;28;20126;-83
2023/03/09 06:46:44;;;;;;;40.20;15.00;;;4.20;99.90;;;;;;5019184;28;20041;-82
2023/03/09 06:52:06;;;;;;;38.60;14.20;;;4.20;99.90;;;;;;5035983;28;20045;-82
2023/03/09 06:54:34;;;;;;;40.42;14.63;;;4.20;99.90;;;;;;5027092;28;20041;-82
2023/03/09 06:57:11;;;;;;;37.72;14.57;;;4.20;99.90;;;;;;5040715;28;20041;-82
2023/03/09 07:02:46;;;;;;;56.35;15.07;;;4.20;99.90;;;;;;5055613;28;20390;-82
2023/03/09 07:05:14;;;;;;;40.25;15.10;;;4.20;99.90;;;;;;5039206;28;20080;-82
2023/03/09 07:07:42;;;;;;;38.35;13.70;;;4.20;99.90;;;;;;5037904;28;20059;-83
2023/03/09 07:10:11;;;;;;;41.97;14.30;;;4.20;99.90;;;;;;5055170;28;20033;-84
2023/03/09 07:12:38;;;;;;;37.80;14.05;;;4.20;99.90;;;;;;5038760;28;20033;-82
2023/03/09 07:15:04;;;;;;;36.38;13.48;;;4.20;99.90;;;;;;5054657;28;20045;-82
2023/03/09 07:17:31;;;;;;;42.33;16.02;;;4.30;99.90;;;;;;5055284;28;20049;-82
2023/03/09 07:22:46;;;;;;;40.15;14.30;;;4.30;99.90;;;;;;5054512;28;20053;-83
2023/03/09 07:25:12;;;;;;;39.70;14.80;;;4.30;99.90;;;;;;5056375;28;20044;-83
2023/03/09 07:27:39;;;;;;;39.60;14.50;;;4.30;99.90;;;;;;5037663;28;20045;-83
2023/03/09 07:32:51;;;;;;;38.15;13.98;;;4.30;99.90;;;;;;5054876;28;20048;-84
2023/03/09 07:35:18;;;;;;;40.33;13.18;;;4.40;99.90;;;;;;5053908;28;20124;-83
2023/03/09 07:37:46;;;;;;;42.00;14.88;;;4.40;99.90;;;;;;5055170;28;20444;-83
2023/03/09 07:43:15;;;;;;;35.90;13.55;;;4.40;99.90;;;;;;5053973;28;20060;-84
2023/03/09 07:46:02;;;;;;;42.78;13.85;;;4.40;99.90;;;;;;5040688;28;20151;-84
2023/03/09 07:48:31;;;;;;;37.60;14.85;;;4.40;99.90;;;;;;5037264;28;20041;-84
2023/03/09 07:50:58;;;;;;;40.78;14.13;;;4.40;99.90;;;;;;5054701;28;20037;-84
2023/03/09 07:53:24;;;;;;;42.75;14.20;;;4.40;99.90;;;;;;5038086;28;20056;-85
2023/03/09 07:55:51;;;;;;;34.97;13.63;;;4.40;99.90;;;;;;5054618;28;20045;-83
2023/03/09 07:58:19;;;;;;;33.10;13.30;;;4.40;99.90;;;;;;5037084;28;20053;-84
2023/03/09 08:00:45;;;;;;;35.15;13.43;;;4.40;99.90;;;;;;5037903;28;20160;-84
2023/03/09 08:03:12;;;;;;;33.80;13.20;;;4.40;99.90;;;;;;5036913;28;20118;-84
2023/03/09 08:05:39;;;;;;;36.15;14.35;;;4.40;99.90;;;;;;5037698;28;20459;-84
2023/03/09 08:10:52;;;;;;;35.15;13.25;;;4.50;99.90;;;;;;5055597;28;20049;-84
2023/03/09 08:13:19;;;;;;;33.25;12.13;;;4.60;99.90;;;;;;5054313;28;20052;-83
2023/03/09 08:15:45;;;;;;;47.25;15.00;;;4.60;99.90;;;;;;5036831;28;20068;-84
2023/03/09 08:18:14;;;;;;;33.35;13.45;;;4.70;99.90;;;;;;5053628;28;20041;-82
2023/03/09 08:20:40;;;;;;;34.60;13.25;;;4.70;99.90;;;;;;5054372;28;20051;-84
2023/03/09 08:23:07;;;;;;;37.97;13.40;;;4.70;99.90;;;;;;5053385;28;20041;-84
2023/03/09 08:25:34;;;;;;;33.38;13.27;;;4.70;99.90;;;;;;5053818;28;20044;-83
2023/03/09 08:28:00;;;;;;;33.20;13.10;;;4.70;99.90;;;;;;5036384;28;20033;-82
2023/03/09 08:30:27;;;;;;;28.35;11.70;;;4.70;99.90;;;;;;5054053;28;20099;-84
2023/03/09 08:32:54;;;;;;;30.58;12.20;;;4.80;99.90;;;;;;5054396;28;20124;-83
2023/03/09 08:35:21;;;;;;;31.58;12.70;;;4.80;99.90;;;;;;5052709;28;20063;-80
2023/03/09 08:37:47;;;;;;;28.77;11.35;;;4.80;99.90;;;;;;5037277;28;20037;-84
2023/03/09 08:40:16;;;;;;;29.58;11.75;;;4.80;99.90;;;;;;5053737;28;20051;-83
2023/03/09 08:42:43;;;;;;;26.10;10.40;;;4.80;99.90;;;;;;5036327;28;20060;-82
2023/03/09 08:45:09;;;;;;;28.83;11.15;;;4.80;99.90;;;;;;5036766;28;20047;-82
2023/03/09 08:47:36;;;;;;;26.08;10.70;;;4.80;99.90;;;;;;5042361;28;20041;-83
2023/03/09 08:50:03;;;;;;;27.00;9.95;;;4.90;99.90;;;;;;5033421;28;20422;-85
2023/03/09 08:52:34;;;;;;;26.80;9.90;;;4.90;99.90;;;;;;5034562;28;20034;-81
2023/03/09 08:55:01;;;;;;;23.52;9.05;;;4.90;99.90;;;;;;5032486;28;20038;-85
2023/03/09 08:57:28;;;;;;;23.50;9.13;;;4.90;99.90;;;;;;5033871;28;20052;-83
2023/03/09 08:59:56;;;;;;;24.85;8.95;;;4.90;99.90;;;;;;5034392;28;20137;-82
2023/03/09 09:02:24;;;;;;;23.70;8.73;;;4.90;99.90;;;;;;5032214;28;20042;-83
2023/03/09 09:04:51;;;;;;;20.13;8.77;;;5.00;99.90;;;;;;5034081;28;20049;-83
2023/03/09 09:07:18;;;;;;;22.17;8.65;;;4.90;99.90;;;;;;5034486;28;20037;-82
2023/03/09 09:12:32;;;;;;;16.15;7.18;;;5.00;99.90;;;;;;5039127;28;20068;-82
2023/03/09 09:14:59;;;;;;;14.90;6.68;;;5.00;99.90;;;;;;5036904;28;20037;-83
2023/03/09 09:17:26;;;;;;;16.55;6.80;;;5.10;99.90;;;;;;5049831;28;20046;-83
2023/03/09 09:22:56;;;;;;;20.05;7.28;;;5.10;99.90;;;;;;5057411;28;20041;-81
2023/03/09 09:25:23;;;;;;;15.75;6.53;;;5.10;99.90;;;;;;5058140;28;20033;-82
2023/03/09 09:27:52;;;;;;;16.85;6.35;;;5.10;99.90;;;;;;5057216;28;20052;-79
2023/03/09 09:30:22;;;;;;;15.95;6.68;;;5.10;99.90;;;;;;5057988;28;20071;-79
2023/03/09 09:32:49;;;;;;;16.70;5.93;;;5.10;99.90;;;;;;5057378;28;20513;-83
2023/03/09 09:35:15;;;;;;;16.30;5.80;;;5.20;99.90;;;;;;5057125;28;20049;-82
2023/03/09 09:37:42;;;;;;;16.23;6.60;;;5.20;99.90;;;;;;5057109;28;20049;-82
2023/03/09 09:40:11;;;;;;;15.18;6.57;;;5.30;99.90;;;;;;5040209;28;20052;-81
2023/03/09 09:42:37;;;;;;;15.00;5.93;;;5.30;99.90;;;;;;5056118;28;20451;-81
2023/03/09 09:45:04;;;;;;;14.90;6.00;;;5.40;99.90;;;;;;5057837;28;20132;-81
2023/03/09 09:47:31;;;;;;;16.75;6.15;;;5.40;99.90;;;;;;5056221;28;20069;-83
2023/03/09 09:52:28;;;;;;;13.07;6.10;;;5.40;99.90;;;;;;5089361;28;20037;-82
2023/03/09 09:54:55;;;;;;;15.07;5.72;;;5.50;99.90;;;;;;5055835;28;20049;-82
2023/03/09 09:57:22;;;;;;;14.38;5.82;;;5.50;99.90;;;;;;5059373;28;20041;-84
2023/03/09 09:59:50;;;;;;;14.52;5.93;;;5.50;99.90;;;;;;5036365;28;20052;-82
2023/03/09 10:02:17;;;;;;;12.05;5.35;;;5.60;99.90;;;;;;5050150;28;20467;-81
2023/03/09 10:04:43;;;;;;;14.10;5.80;;;5.60;99.90;;;;;;5076427;28;20037;-81
2023/03/09 10:07:10;;;;;;;14.35;5.50;;;5.70;99.90;;;;;;5059126;28;20045;-82
2023/03/09 10:09:38;;;;;;;11.93;5.15;;;5.70;99.90;;;;;;5075077;28;20041;-82
2023/03/09 10:12:13;;;;;;;12.75;5.07;;;5.80;99.90;;;;;;5077050;28;20101;-81
2023/03/09 10:14:40;;;;;;;11.50;4.85;;;5.80;99.90;;;;;;5075124;28;20041;-82
2023/03/09 10:17:06;;;;;;;12.80;5.28;;;5.90;99.90;;;;;;5075969;28;20056;-83
2023/03/09 10:19:33;;;;;;;13.07;5.25;;;5.90;99.90;;;;;;5044061;28;20054;-82
2023/03/09 10:22:00;;;;;;;11.30;4.55;;;6.00;99.90;;;;;;5049629;28;20049;-82
2023/03/09 10:24:27;;;;;;;11.60;4.72;;;6.10;99.90;;;;;;5051641;28;20060;-83
2023/03/09 10:26:53;;;;;;;9.98;4.72;;;6.10;99.90;;;;;;5054308;28;20106;-80
2023/03/09 10:29:20;;;;;;;10.15;4.07;;;6.20;99.90;;;;;;5051318;28;20040;-84
2023/03/09 10:31:47;;;;;;;11.23;4.63;;;6.30;99.90;;;;;;5038341;28;20051;-83
2023/03/09 10:34:14;;;;;;;11.15;4.28;;;6.30;99.90;;;;;;5038658;28;20041;-80
2023/03/09 10:36:40;;;;;;;10.13;4.30;;;6.40;99.90;;;;;;5044104;28;20382;-84
2023/03/09 10:39:07;;;;;;;13.45;4.55;;;6.40;99.90;;;;;;5038447;28;20046;-82
2023/03/09 10:41:34;;;;;;;10.07;4.22;;;6.50;99.90;;;;;;5034893;28;20391;-82
2023/03/09 10:44:00;;;;;;;10.57;4.10;;;6.60;99.90;;;;;;5019606;28;20041;-83
2023/03/09 10:46:27;;;;;;;9.48;3.65;;;6.60;99.90;;;;;;5035963;28;20056;-81
2023/03/09 10:48:56;;;;;;;11.20;3.75;;;6.70;99.90;;;;;;5039635;28;20121;-81
2023/03/09 10:51:22;;;;;;;8.57;3.50;;;6.70;99.90;;;;;;5075528;28;20055;-81
2023/03/09 10:53:49;;;;;;;8.40;3.67;;;6.80;99.90;;;;;;5076543;28;20406;-81
2023/03/09 10:56:15;;;;;;;8.45;3.92;;;7.00;99.90;;;;;;5074461;28;20474;-82
2023/03/09 10:58:42;;;;;;;12.02;3.92;;;7.10;99.90;;;;;;5077033;28;20114;-85
2023/03/09 11:01:09;;;;;;;9.82;3.88;;;7.20;99.90;;;;;;5074478;28;20203;-85
2023/03/09 11:03:35;;;;;;;7.22;3.03;;;7.30;99.90;;;;;;5053895;28;20514;-85
2023/03/09 11:06:02;;;;;;;15.93;4.05;;;7.40;99.90;;;;;;5035143;28;20491;-84
2023/03/09 11:08:29;;;;;;;9.20;3.55;;;7.40;99.90;;;;;;5017509;28;20050;-81
2023/03/09 11:11:14;;;;;;;9.52;3.90;;;7.40;99.90;;;;;;5035784;28;20526;-84
2023/03/09 11:13:41;;;;;;;8.82;3.83;;;7.40;99.90;;;;;;5036165;28;20030;-83
2023/03/09 11:16:08;;;;;;;9.15;3.88;;;7.50;99.90;;;;;;5035092;28;20475;-84
2023/03/09 11:18:34;;;;;;;15.85;4.55;;;7.50;99.90;;;;;;5025702;28;20040;-83
2023/03/09 11:21:01;;;;;;;12.63;4.70;;;7.60;99.90;;;;;;5050498;28;20045;-82
2023/03/09 11:23:28;;;;;;;11.00;4.75;;;7.60;99.90;;;;;;5036251;28;20041;-82
2023/03/09 11:25:54;;;;;;;12.45;5.70;;;7.60;99.90;;;;;;5035392;28;20132;-84
2023/03/09 11:31:08;;;;;;;19.10;5.97;;;7.80;99.90;;;;;;5035196;28;20057;-82
2023/03/09 11:33:34;;;;;;;15.07;5.18;;;7.80;99.90;;;;;;5018945;28;20376;-82
2023/03/09 11:36:02;;;;;;;10.70;4.13;;;7.80;99.90;;;;;;5033788;28;20054;-81
2023/03/09 11:41:14;;;;;;;43.90;6.00;;;7.90;99.90;;;;;;5034078;28;20095;-83
2023/03/09 11:43:41;;;;;;;12.95;4.88;;;8.00;99.90;;;;;;5027795;28;20083;-80
2023/03/09 11:46:08;;;;;;;15.50;4.65;;;8.00;99.90;;;;;;5055376;28;20040;-78
2023/03/09 11:48:37;;;;;;;12.02;4.50;;;8.10;99.90;;;;;;5053677;28;20037;-81
2023/03/09 11:51:04;;;;;;;11.55;4.60;;;8.20;99.90;;;;;;5051593;28;20052;-80
2023/03/09 11:53:31;;;;;;;11.30;4.70;;;8.20;99.90;;;;;;5051123;28;20372;-79
2023/03/09 11:55:58;;;;;;;12.43;4.30;;;8.20;99.90;;;;;;5035453;28;20468;-78
2023/03/09 11:58:24;;;;;;;10.23;4.50;;;8.20;99.90;;;;;;5054512;28;20048;-79
2023/03/09 12:00:51;;;;;;;12.52;4.55;;;8.20;99.90;;;;;;5052746;28;20063;-78
2023/03/09 12:03:19;;;;;;;10.13;3.83;;;8.30;99.90;;;;;;5063863;28;20036;-80
2023/03/09 12:05:46;;;;;;;11.65;4.05;;;8.30;99.90;;;;;;5036534;28;20041;-81
2023/03/09 12:10:43;;;;;;;10.75;4.00;;;8.40;99.90;;;;;;5054624;28;20032;-77
2023/03/09 12:13:09;;;;;;;10.40;3.75;;;8.40;99.90;;;;;;5054082;28;20045;-79
2023/03/09 12:15:36;;;;;;;11.68;3.97;;;8.50;99.90;;;;;;5053828;28;20052;-79
2023/03/09 12:18:04;;;;;;;12.15;4.10;;;8.60;99.90;;;;;;5054265;28;20067;-80
2023/03/09 12:20:30;;;;;;;10.45;3.95;;;8.70;99.90;;;;;;5075462;28;20051;-79
2023/03/09 12:22:57;;;;;;;18.77;3.97;;;8.70;99.90;;;;;;5076246;28;20097;-82
2023/03/09 12:25:24;;;;;;;11.73;4.75;;;8.80;99.90;;;;;;5073676;28;20044;-80
2023/03/09 12:27:50;;;;;;;13.20;3.88;;;8.90;99.90;;;;;;5073329;28;20092;-82
2023/03/09 12:30:18;;;;;;;10.82;3.50;;;9.00;99.90;;;;;;5072367;28;20056;-80
2023/03/09 12:32:45;;;;;;;16.10;4.18;;;9.10;99.90;;;;;;5053218;28;20037;-80
2023/03/09 12:35:14;;;;;;;17.00;4.22;;;9.30;99.90;;;;;;5033077;28;20057;-80
2023/03/09 12:37:41;;;;;;;20.70;4.57;;;9.50;99.90;;;;;;5036916;28;20128;-82
2023/03/09 12:42:54;;;;;;;19.95;4.80;;;9.70;99.90;;;;;;5072336;28;20525;-83
2023/03/09 12:45:20;;;;;;;24.20;4.75;;;9.80;99.90;;;;;;5073734;28;20352;-80
2023/03/09 12:47:47;;;;;;;22.00;4.93;;;9.90;99.90;;;;;;5055294;28;20477;-81
2023/03/09 12:50:15;;;;;;;27.02;5.57;;;10.00;99.90;;;;;;5053691;28;20041;-82
2023/03/09 12:52:42;;;;;;;23.80;4.10;;;10.10;99.90;;;;;;5019264;28;20038;-84
2023/03/09 12:55:08;;;;;;;24.00;3.80;;;10.10;99.90;;;;;;5020755;28;20037;-80
2023/03/09 12:57:35;;;;;;;22.33;3.90;;;10.10;99.90;;;;;;5033185;28;20056;-84
2023/03/09 13:00:02;;;;;;;21.08;4.38;;;10.10;99.90;;;;;;5034355;28;20042;-84
2023/03/09 13:02:29;;;;;;;22.98;4.70;;;10.10;99.90;;;;;;5032846;28;20049;-81
2023/03/09 13:04:56;;;;;;;25.67;4.63;;;10.10;99.90;;;;;;5048546;28;20099;-81
2023/03/09 13:07:22;;;;;;;22.02;4.32;;;10.20;99.90;;;;;;5057752;28;20120;-82
2023/03/09 13:12:35;;;;;;;24.30;4.30;;;10.30;99.90;;;;;;5054417;28;20055;-81
2023/03/09 13:15:01;;;;;;;20.88;3.40;;;10.30;99.90;;;;;;5053266;28;20471;-80
2023/03/09 13:17:34;;;;;;;22.50;4.70;;;10.40;99.90;;;;;;5055374;28;20213;-79
2023/03/09 13:20:01;;;;;;;28.05;3.85;;;10.40;99.90;;;;;;5034908;28;20091;-83
2023/03/09 13:22:29;;;;;;;20.75;4.47;;;10.50;99.90;;;;;;5034040;28;20048;-82
2023/03/09 13:24:55;;;;;;;25.52;3.83;;;10.50;99.90;;;;;;5036040;28;20046;-81
2023/03/09 13:27:23;;;;;;;27.58;4.55;;;10.60;99.90;;;;;;5034393;28;20430;-82
2023/03/09 13:29:50;;;;;;;25.30;4.35;;;10.60;99.90;;;;;;5015920;28;20148;-80
2023/03/09 13:32:17;;;;;;;21.52;4.07;;;10.70;99.90;;;;;;5046477;28;20049;-79
2023/03/09 13:34:43;;;;;;;17.08;3.22;;;10.70;99.90;;;;;;5052182;28;20040;-80
2023/03/09 13:37:10;;;;;;;24.52;3.90;;;10.70;99.90;;;;;;5041912;28;20057;-86
2023/03/09 13:42:10;;;;;;;17.90;3.65;;;10.70;99.90;;;;;;5030123;28;20543;-79
2023/03/09 13:44:37;;;;;;;20.52;3.00;;;10.70;99.90;;;;;;5052809;28;20041;-79
2023/03/09 13:47:05;;;;;;;13.50;3.40;;;10.70;99.90;;;;;;5053288;28;20410;-83
2023/03/09 13:49:32;;;;;;;18.42;3.55;;;10.70;99.90;;;;;;5032591;28;20128;-80
2023/03/09 13:51:58;;;;;;;14.52;2.92;;;10.70;99.90;;;;;;5033062;28;20115;-81
2023/03/09 13:54:25;;;;;;;12.57;2.78;;;10.70;99.90;;;;;;5023595;28;20056;-83
2023/03/09 13:56:52;;;;;;;15.07;3.13;;;10.80;99.90;;;;;;5034530;28;20480;-81
2023/03/09 13:59:21;;;;;;;14.50;2.95;;;10.80;99.90;;;;;;5037088;28;20038;-79
2023/03/09 14:01:48;;;;;;;15.35;3.45;;;10.90;99.90;;;;;;5050143;28;20060;-78